sensor_id;sensor_type;location;lat;lon;timestamp;pressure;altitude;pressure_sealevel;temperature;humidity
66176;BME280;52977;44.816;20.538;2024-02-04T00:00:24;100327.78;;;9.83;73.24
66176;BME280;52977;44.816;20.538;2024-02-04T00:02:50;100331.34;;;9.84;72.99
66176;BME280;52977;44.816;20.538;2024-02-04T00:05:16;100327.59;;;9.80;72.97
66176;BME280;52977;44.816;20.538;2024-02-04T00:07:44;100321.13;;;9.75;72.74
66176;BME280;52977;44.816;20.538;2024-02-04T00:10:11;100316.06;;;9.69;73.48
66176;BME280;52977;44.816;20.538;2024-02-04T00:12:38;100319.59;;;9.69;73.48
66176;BME280;52977;44.816;20.538;2024-02-04T00:15:05;100305.56;;;9.62;73.76
66176;BME280;52977;44.816;20.538;2024-02-04T00:17:32;100323.53;;;9.63;73.49
66176;BME280;52977;44.816;20.538;2024-02-04T00:20:00;100325.25;;;9.59;73.94
66176;BME280;52977;44.816;20.538;2024-02-04T00:22:27;100331.28;;;9.56;74.01
66176;BME280;52977;44.816;20.538;2024-02-04T00:24:54;100321.50;;;9.55;74.60
66176;BME280;52977;44.816;20.538;2024-02-04T00:27:20;100323.91;;;9.56;73.84
66176;BME280;52977;44.816;20.538;2024-02-04T00:29:46;100323.19;;;9.51;74.19
66176;BME280;52977;44.816;20.538;2024-02-04T00:32:13;100317.22;;;9.49;74.85
66176;BME280;52977;44.816;20.538;2024-02-04T00:34:39;100311.59;;;9.59;74.20
66176;BME280;52977;44.816;20.538;2024-02-04T00:37:05;100314.41;;;9.54;74.13
66176;BME280;52977;44.816;20.538;2024-02-04T00:39:32;100317.44;;;9.52;73.98
66176;BME280;52977;44.816;20.538;2024-02-04T00:41:58;100326.72;;;9.51;74.08
66176;BME280;52977;44.816;20.538;2024-02-04T00:44:25;100323.66;;;9.39;74.37
66176;BME280;52977;44.816;20.538;2024-02-04T00:46:51;100333.75;;;9.38;74.72
66176;BME280;52977;44.816;20.538;2024-02-04T00:49:17;100339.13;;;9.44;74.58
66176;BME280;52977;44.816;20.538;2024-02-04T00:51:44;100337.22;;;9.44;74.34
66176;BME280;52977;44.816;20.538;2024-02-04T00:54:10;100335.81;;;9.47;74.25
66176;BME280;52977;44.816;20.538;2024-02-04T00:56:36;100335.81;;;9.47;73.79
66176;BME280;52977;44.816;20.538;2024-02-04T00:59:04;100327.94;;;9.45;74.30
66176;BME280;52977;44.816;20.538;2024-02-04T01:01:31;100327.03;;;9.50;73.70
66176;BME280;52977;44.816;20.538;2024-02-04T01:03:58;100319.06;;;9.53;73.37
66176;BME280;52977;44.816;20.538;2024-02-04T01:06:24;100328.28;;;9.57;73.75
66176;BME280;52977;44.816;20.538;2024-02-04T01:08:51;100327.75;;;9.55;73.46
66176;BME280;52977;44.816;20.538;2024-02-04T01:11:17;100310.59;;;9.55;74.26
66176;BME280;52977;44.816;20.538;2024-02-04T01:13:44;100311.53;;;9.64;73.61
66176;BME280;52977;44.816;20.538;2024-02-04T01:16:11;100304.22;;;9.60;74.27
66176;BME280;52977;44.816;20.538;2024-02-04T01:18:38;100305.56;;;9.62;74.34
66176;BME280;52977;44.816;20.538;2024-02-04T01:21:04;100315.44;;;9.58;74.21
66176;BME280;52977;44.816;20.538;2024-02-04T01:23:31;100312.94;;;9.62;74.39
66176;BME280;52977;44.816;20.538;2024-02-04T01:25:57;100313.44;;;9.64;74.62
66176;BME280;52977;44.816;20.538;2024-02-04T01:28:24;100315.66;;;9.62;74.48
66176;BME280;52977;44.816;20.538;2024-02-04T01:30:49;100315.06;;;9.65;74.41
66176;BME280;52977;44.816;20.538;2024-02-04T01:33:15;100314.34;;;9.73;74.63
66176;BME280;52977;44.816;20.538;2024-02-04T01:35:41;100314.34;;;9.73;74.17
66176;BME280;52977;44.816;20.538;2024-02-04T01:38:08;100322.41;;;9.78;74.24
66176;BME280;52977;44.816;20.538;2024-02-04T01:40:35;100322.31;;;9.69;74.56
66176;BME280;52977;44.816;20.538;2024-02-04T01:43:02;100319.09;;;9.67;75.12
66176;BME280;52977;44.816;20.538;2024-02-04T01:45:28;100313.66;;;9.67;74.86
66176;BME280;52977;44.816;20.538;2024-02-04T01:47:54;100313.34;;;9.69;74.87
66176;BME280;52977;44.816;20.538;2024-02-04T01:50:21;100315.31;;;9.49;74.82
66176;BME280;52977;44.816;20.538;2024-02-04T01:52:48;100309.50;;;9.56;75.00
66176;BME280;52977;44.816;20.538;2024-02-04T01:55:17;100310.47;;;9.46;75.85
66176;BME280;52977;44.816;20.538;2024-02-04T01:57:44;100311.69;;;9.54;75.29
66176;BME280;52977;44.816;20.538;2024-02-04T02:00:13;100309.78;;;9.54;74.21
66176;BME280;52977;44.816;20.538;2024-02-04T02:02:40;100308.66;;;9.55;74.63
66176;BME280;52977;44.816;20.538;2024-02-04T02:05:07;100313.50;;;9.58;74.06
66176;BME280;52977;44.816;20.538;2024-02-04T02:07:34;100325.84;;;9.56;74.03
66176;BME280;52977;44.816;20.538;2024-02-04T02:10:00;100324.91;;;9.47;74.59
66176;BME280;52977;44.816;20.538;2024-02-04T02:12:30;100332.38;;;9.41;74.69
66176;BME280;52977;44.816;20.538;2024-02-04T02:15:04;100318.34;;;9.48;74.42
66176;BME280;52977;44.816;20.538;2024-02-04T02:17:38;100314.50;;;9.49;74.06
66176;BME280;52977;44.816;20.538;2024-02-04T02:20:27;100307.47;;;9.48;75.13
66176;BME280;52977;44.816;20.538;2024-02-04T02:23:06;100317.22;;;9.49;75.07
66176;BME280;52977;44.816;20.538;2024-02-04T02:25:33;100314.69;;;9.38;75.66
66176;BME280;52977;44.816;20.538;2024-02-04T02:28:02;100315.78;;;9.37;75.29
66176;BME280;52977;44.816;20.538;2024-02-04T02:30:28;100313.59;;;9.39;75.68
66176;BME280;52977;44.816;20.538;2024-02-04T02:32:54;100321.09;;;9.48;76.19
66176;BME280;52977;44.816;20.538;2024-02-04T02:35:21;100319.84;;;9.40;76.07
66176;BME280;52977;44.816;20.538;2024-02-04T02:37:58;100316.81;;;9.41;76.07
66176;BME280;52977;44.816;20.538;2024-02-04T02:40:39;100324.19;;;9.41;75.96
66176;BME280;52977;44.816;20.538;2024-02-04T02:43:08;100319.22;;;9.43;75.97
66176;BME280;52977;44.816;20.538;2024-02-04T02:45:40;100311.38;;;9.55;76.15
66176;BME280;52977;44.816;20.538;2024-02-04T02:48:07;100310.91;;;9.53;76.17
66176;BME280;52977;44.816;20.538;2024-02-04T02:50:35;100307.06;;;9.54;76.35
66176;BME280;52977;44.816;20.538;2024-02-04T02:53:02;100305.84;;;9.61;75.35
66176;BME280;52977;44.816;20.538;2024-02-04T02:55:28;100304.94;;;9.65;75.48
66176;BME280;52977;44.816;20.538;2024-02-04T02:57:55;100306.78;;;9.70;74.89
66176;BME280;52977;44.816;20.538;2024-02-04T03:00:21;100308.06;;;9.72;75.05
66176;BME280;52977;44.816;20.538;2024-02-04T03:02:48;100300.41;;;9.61;75.28
66176;BME280;52977;44.816;20.538;2024-02-04T03:05:15;100309.78;;;9.54;75.64
66176;BME280;52977;44.816;20.538;2024-02-04T03:07:41;100309.28;;;9.66;75.01
66176;BME280;52977;44.816;20.538;2024-02-04T03:10:08;100300.50;;;9.69;74.90
66176;BME280;52977;44.816;20.538;2024-02-04T03:12:35;100308.59;;;9.61;74.47
66176;BME280;52977;44.816;20.538;2024-02-04T03:15:01;100308.28;;;9.62;75.02
66176;BME280;52977;44.816;20.538;2024-02-04T03:17:28;100294.56;;;9.67;74.32
66176;BME280;52977;44.816;20.538;2024-02-04T03:19:54;100293.44;;;9.68;74.76
66176;BME280;52977;44.816;20.538;2024-02-04T03:22:21;100291.22;;;9.70;74.78
66176;BME280;52977;44.816;20.538;2024-02-04T03:24:48;100278.69;;;9.69;74.64
66176;BME280;52977;44.816;20.538;2024-02-04T03:27:17;100291.63;;;9.78;74.60
66176;BME280;52977;44.816;20.538;2024-02-04T03:29:44;100296.59;;;9.75;74.77
66176;BME280;52977;44.816;20.538;2024-02-04T03:32:11;100292.72;;;9.77;74.87
66176;BME280;52977;44.816;20.538;2024-02-04T03:34:37;100300.22;;;9.85;74.21
66176;BME280;52977;44.816;20.538;2024-02-04T03:37:06;100301.03;;;9.85;74.61
66176;BME280;52977;44.816;20.538;2024-02-04T03:39:32;100300.81;;;9.82;74.69
66176;BME280;52977;44.816;20.538;2024-02-04T03:41:58;100303.44;;;9.73;74.94
66176;BME280;52977;44.816;20.538;2024-02-04T03:44:25;100312.25;;;9.70;75.07
66176;BME280;52977;44.816;20.538;2024-02-04T03:46:51;100314.84;;;9.75;74.93
66176;BME280;52977;44.816;20.538;2024-02-04T03:49:17;100309.38;;;9.61;75.19
66176;BME280;52977;44.816;20.538;2024-02-04T03:51:44;100306.25;;;9.54;76.22
66176;BME280;52977;44.816;20.538;2024-02-04T03:54:10;100294.72;;;9.57;75.76
66176;BME280;52977;44.816;20.538;2024-02-04T03:56:37;100278.41;;;9.71;74.78
66176;BME280;52977;44.816;20.538;2024-02-04T03:59:03;100271.22;;;9.75;74.19
66176;BME280;52977;44.816;20.538;2024-02-04T04:01:29;100270.91;;;9.77;74.39
66176;BME280;52977;44.816;20.538;2024-02-04T04:03:56;100273.66;;;9.77;74.71
66176;BME280;52977;44.816;20.538;2024-02-04T04:06:22;100270.34;;;9.80;74.06
66176;BME280;52977;44.816;20.538;2024-02-04T04:08:48;100265.16;;;9.78;73.96
66176;BME280;52977;44.816;20.538;2024-02-04T04:11:14;100267.41;;;9.76;74.14
66176;BME280;52977;44.816;20.538;2024-02-04T04:13:41;100276.06;;;9.78;74.21
66176;BME280;52977;44.816;20.538;2024-02-04T04:16:07;100279.09;;;9.77;74.58
66176;BME280;52977;44.816;20.538;2024-02-04T04:18:33;100273.06;;;9.80;74.32
66176;BME280;52977;44.816;20.538;2024-02-04T04:21:01;100275.50;;;9.81;74.32
66176;BME280;52977;44.816;20.538;2024-02-04T04:23:27;100275.66;;;9.85;74.37
66176;BME280;52977;44.816;20.538;2024-02-04T04:25:53;100281.66;;;9.87;73.86
66176;BME280;52977;44.816;20.538;2024-02-04T04:28:19;100284.88;;;9.89;73.78
66176;BME280;52977;44.816;20.538;2024-02-04T04:30:46;100272.84;;;9.90;73.44
66176;BME280;52977;44.816;20.538;2024-02-04T04:33:12;100280.94;;;9.95;73.41
66176;BME280;52977;44.816;20.538;2024-02-04T04:35:39;100284.06;;;10.02;73.83
66176;BME280;52977;44.816;20.538;2024-02-04T04:38:05;100291.22;;;9.98;73.30
66176;BME280;52977;44.816;20.538;2024-02-04T04:40:31;100288.59;;;9.93;74.19
66176;BME280;52977;44.816;20.538;2024-02-04T04:42:58;100281.44;;;9.97;74.43
66176;BME280;52977;44.816;20.538;2024-02-04T04:45:24;100285.16;;;10.01;74.08
66176;BME280;52977;44.816;20.538;2024-02-04T04:47:50;100286.09;;;9.97;74.13
66176;BME280;52977;44.816;20.538;2024-02-04T04:50:16;100284.25;;;9.92;74.07
66176;BME280;52977;44.816;20.538;2024-02-04T04:52:43;100288.50;;;9.84;74.94
66176;BME280;52977;44.816;20.538;2024-02-04T04:55:09;100298.50;;;9.89;75.13
66176;BME280;52977;44.816;20.538;2024-02-04T04:57:34;100293.34;;;10.01;74.32
66176;BME280;52977;44.816;20.538;2024-02-04T05:00:00;100274.25;;;10.01;73.89
66176;BME280;52977;44.816;20.538;2024-02-04T05:02:36;100279.22;;;9.99;74.10
66176;BME280;52977;44.816;20.538;2024-02-04T05:05:02;100270.53;;;9.97;73.86
66176;BME280;52977;44.816;20.538;2024-02-04T05:07:28;100278.69;;;9.97;74.44
66176;BME280;52977;44.816;20.538;2024-02-04T05:09:54;100284.16;;;9.97;74.29
66176;BME280;52977;44.816;20.538;2024-02-04T05:12:20;100269.91;;;10.00;74.09
66176;BME280;52977;44.816;20.538;2024-02-04T05:14:47;100276.47;;;10.13;74.05
66176;BME280;52977;44.816;20.538;2024-02-04T05:17:13;100276.47;;;10.13;74.17
66176;BME280;52977;44.816;20.538;2024-02-04T05:19:42;100279.69;;;10.15;73.81
66176;BME280;52977;44.816;20.538;2024-02-04T05:22:09;100290.72;;;10.10;73.92
66176;BME280;52977;44.816;20.538;2024-02-04T05:24:35;100287.81;;;10.06;74.50
66176;BME280;52977;44.816;20.538;2024-02-04T05:27:00;100285.56;;;10.08;73.87
66176;BME280;52977;44.816;20.538;2024-02-04T05:29:27;100293.56;;;10.05;74.13
66176;BME280;52977;44.816;20.538;2024-02-04T05:31:53;100294.56;;;10.09;73.67
66176;BME280;52977;44.816;20.538;2024-02-04T05:34:19;100291.53;;;10.11;73.50
66176;BME280;52977;44.816;20.538;2024-02-04T05:36:45;100300.81;;;9.96;74.41
66176;BME280;52977;44.816;20.538;2024-02-04T05:39:13;100299.19;;;10.08;73.84
66176;BME280;52977;44.816;20.538;2024-02-04T05:41:39;100303.06;;;10.07;73.91
66176;BME280;52977;44.816;20.538;2024-02-04T05:44:06;100301.13;;;10.08;74.13
66176;BME280;52977;44.816;20.538;2024-02-04T05:46:38;100311.72;;;10.09;73.55
66176;BME280;52977;44.816;20.538;2024-02-04T05:49:05;100306.78;;;10.12;73.77
66176;BME280;52977;44.816;20.538;2024-02-04T05:51:32;100308.91;;;10.15;73.22
66176;BME280;52977;44.816;20.538;2024-02-04T05:53:59;100306.78;;;10.12;73.25
66176;BME280;52977;44.816;20.538;2024-02-04T05:56:25;100301.84;;;10.14;72.95
66176;BME280;52977;44.816;20.538;2024-02-04T05:58:51;100305.56;;;10.18;73.16
66176;BME280;52977;44.816;20.538;2024-02-04T06:01:18;100306.97;;;10.15;73.45
66176;BME280;52977;44.816;20.538;2024-02-04T06:03:44;100306.69;;;10.17;73.06
66176;BME280;52977;44.816;20.538;2024-02-04T06:06:15;100309.81;;;10.10;73.77
66176;BME280;52977;44.816;20.538;2024-02-04T06:08:42;100313.06;;;10.12;73.42
66176;BME280;52977;44.816;20.538;2024-02-04T06:11:12;100320.53;;;10.06;74.29
66176;BME280;52977;44.816;20.538;2024-02-04T06:13:40;100320.72;;;10.10;74.12
66176;BME280;52977;44.816;20.538;2024-02-04T06:16:07;100316.78;;;10.16;73.55
66176;BME280;52977;44.816;20.538;2024-02-04T06:18:35;100317.91;;;10.15;73.55
66176;BME280;52977;44.816;20.538;2024-02-04T06:21:04;100332.53;;;10.19;73.82
66176;BME280;52977;44.816;20.538;2024-02-04T06:23:30;100339.00;;;10.23;73.28
66176;BME280;52977;44.816;20.538;2024-02-04T06:25:56;100333.84;;;10.22;73.86
66176;BME280;52977;44.816;20.538;2024-02-04T06:28:23;100337.06;;;10.24;73.50
66176;BME280;52977;44.816;20.538;2024-02-04T06:30:49;100335.34;;;10.28;73.10
66176;BME280;52977;44.816;20.538;2024-02-04T06:33:16;100342.75;;;10.41;72.78
66176;BME280;52977;44.816;20.538;2024-02-04T06:35:42;100328.31;;;10.41;72.25
66176;BME280;52977;44.816;20.538;2024-02-04T06:38:08;100326.38;;;10.41;72.61
66176;BME280;52977;44.816;20.538;2024-02-04T06:40:33;100328.72;;;10.34;73.27
66176;BME280;52977;44.816;20.538;2024-02-04T06:43:00;100327.38;;;10.32;73.17
66176;BME280;52977;44.816;20.538;2024-02-04T06:45:26;100329.53;;;10.35;73.00
66176;BME280;52977;44.816;20.538;2024-02-04T06:47:52;100329.53;;;10.35;72.94
66176;BME280;52977;44.816;20.538;2024-02-04T06:50:19;100334.19;;;10.34;73.08
66176;BME280;52977;44.816;20.538;2024-02-04T06:52:46;100339.31;;;10.22;73.44
66176;BME280;52977;44.816;20.538;2024-02-04T06:55:12;100334.16;;;10.20;74.00
66176;BME280;52977;44.816;20.538;2024-02-04T06:57:38;100346.72;;;10.21;73.77
66176;BME280;52977;44.816;20.538;2024-02-04T07:00:06;100338.22;;;10.23;74.18
66176;BME280;52977;44.816;20.538;2024-02-04T07:02:34;100322.63;;;10.23;73.76
66176;BME280;52977;44.816;20.538;2024-02-04T07:05:01;100328.59;;;10.25;73.96
66176;BME280;52977;44.816;20.538;2024-02-04T07:07:27;100337.06;;;10.24;74.14
66176;BME280;52977;44.816;20.538;2024-02-04T07:09:53;100346.28;;;10.28;74.03
66176;BME280;52977;44.816;20.538;2024-02-04T07:12:20;100352.75;;;10.32;73.66
66176;BME280;52977;44.816;20.538;2024-02-04T07:14:46;100351.44;;;10.30;73.86
66176;BME280;52977;44.816;20.538;2024-02-04T07:17:13;100357.50;;;10.40;73.91
66176;BME280;52977;44.816;20.538;2024-02-04T07:19:39;100357.34;;;10.37;73.77
66176;BME280;52977;44.816;20.538;2024-02-04T07:22:05;100352.69;;;10.37;73.68
66176;BME280;52977;44.816;20.538;2024-02-04T07:24:31;100360.94;;;10.32;73.55
66176;BME280;52977;44.816;20.538;2024-02-04T07:26:58;100369.13;;;10.32;73.28
66176;BME280;52977;44.816;20.538;2024-02-04T07:29:24;100368.09;;;10.28;73.83
66176;BME280;52977;44.816;20.538;2024-02-04T07:31:50;100376.13;;;10.38;72.90
66176;BME280;52977;44.816;20.538;2024-02-04T07:34:17;100376.00;;;10.43;72.68
66176;BME280;52977;44.816;20.538;2024-02-04T07:36:43;100378.72;;;10.30;73.62
66176;BME280;52977;44.816;20.538;2024-02-04T07:39:11;100395.09;;;10.30;74.13
66176;BME280;52977;44.816;20.538;2024-02-04T07:41:37;100389.84;;;10.33;73.83
66176;BME280;52977;44.816;20.538;2024-02-04T07:44:03;100390.09;;;10.37;73.46
66176;BME280;52977;44.816;20.538;2024-02-04T07:46:30;100389.03;;;10.33;75.03
66176;BME280;52977;44.816;20.538;2024-02-04T07:48:57;100384.91;;;10.35;74.82
66176;BME280;52977;44.816;20.538;2024-02-04T07:51:23;100395.03;;;10.35;75.28
66176;BME280;52977;44.816;20.538;2024-02-04T07:53:50;100377.44;;;10.27;76.07
66176;BME280;52977;44.816;20.538;2024-02-04T07:56:16;100374.38;;;10.29;75.93
66176;BME280;52977;44.816;20.538;2024-02-04T07:58:42;100380.63;;;10.29;76.04
66176;BME280;52977;44.816;20.538;2024-02-04T08:01:08;100381.97;;;10.32;75.72
66176;BME280;52977;44.816;20.538;2024-02-04T08:03:35;100373.47;;;10.33;76.24
66176;BME280;52977;44.816;20.538;2024-02-04T08:06:01;100372.09;;;10.36;76.88
66176;BME280;52977;44.816;20.538;2024-02-04T08:08:28;100380.47;;;10.39;77.12
66176;BME280;52977;44.816;20.538;2024-02-04T08:10:54;100384.50;;;10.42;77.18
66176;BME280;52977;44.816;20.538;2024-02-04T08:13:21;100380.06;;;10.46;77.05
66176;BME280;52977;44.816;20.538;2024-02-04T08:15:47;100385.22;;;10.48;77.54
66176;BME280;52977;44.816;20.538;2024-02-04T08:18:13;100384.09;;;10.49;77.44
66176;BME280;52977;44.816;20.538;2024-02-04T08:20:40;100395.53;;;10.51;78.32
66176;BME280;52977;44.816;20.538;2024-02-04T08:23:06;100397.03;;;10.57;78.64
66176;BME280;52977;44.816;20.538;2024-02-04T08:25:32;100378.84;;;10.66;78.69
66176;BME280;52977;44.816;20.538;2024-02-04T08:27:58;100395.09;;;10.71;79.16
66176;BME280;52977;44.816;20.538;2024-02-04T08:30:25;100396.59;;;10.77;78.27
66176;BME280;52977;44.816;20.538;2024-02-04T08:32:51;100389.28;;;10.87;78.37
66176;BME280;52977;44.816;20.538;2024-02-04T08:35:17;100379.78;;;10.98;77.33
66176;BME280;52977;44.816;20.538;2024-02-04T08:37:44;100380.25;;;11.00;77.20
66176;BME280;52977;44.816;20.538;2024-02-04T08:40:10;100377.09;;;11.07;77.03
66176;BME280;52977;44.816;20.538;2024-02-04T08:42:36;100378.47;;;11.18;77.07
66176;BME280;52977;44.816;20.538;2024-02-04T08:45:03;100384.75;;;11.19;76.87
66176;BME280;52977;44.816;20.538;2024-02-04T08:47:29;100380.91;;;11.20;76.17
66176;BME280;52977;44.816;20.538;2024-02-04T08:49:54;100383.53;;;11.25;75.81
66176;BME280;52977;44.816;20.538;2024-02-04T08:52:20;100378.06;;;11.25;75.88
66176;BME280;52977;44.816;20.538;2024-02-04T08:54:46;100382.25;;;11.31;75.83
66176;BME280;52977;44.816;20.538;2024-02-04T08:57:11;100380.91;;;11.42;74.72
66176;BME280;52977;44.816;20.538;2024-02-04T08:59:38;100385.72;;;11.45;74.50
66176;BME280;52977;44.816;20.538;2024-02-04T09:02:03;100389.97;;;11.52;74.45
66176;BME280;52977;44.816;20.538;2024-02-04T09:04:29;100383.19;;;11.49;74.87
66176;BME280;52977;44.816;20.538;2024-02-04T09:06:56;100386.59;;;11.55;74.29
66176;BME280;52977;44.816;20.538;2024-02-04T09:09:22;100387.91;;;11.57;74.28
66176;BME280;52977;44.816;20.538;2024-02-04T09:11:48;100375.03;;;11.58;74.13
66176;BME280;52977;44.816;20.538;2024-02-04T09:14:15;100388.94;;;11.70;72.86
66176;BME280;52977;44.816;20.538;2024-02-04T09:16:41;100371.16;;;11.82;73.72
66176;BME280;52977;44.816;20.538;2024-02-04T09:19:07;100373.44;;;11.88;72.16
66176;BME280;52977;44.816;20.538;2024-02-04T09:21:32;100366.66;;;11.86;71.76
66176;BME280;52977;44.816;20.538;2024-02-04T09:23:58;100355.88;;;11.80;72.12
66176;BME280;52977;44.816;20.538;2024-02-04T09:26:24;100357.78;;;11.80;71.67
66176;BME280;52977;44.816;20.538;2024-02-04T09:28:49;100361.91;;;11.69;71.73
66176;BME280;52977;44.816;20.538;2024-02-04T09:31:16;100364.34;;;11.70;71.87
66176;BME280;52977;44.816;20.538;2024-02-04T09:33:41;100357.31;;;11.78;71.44
66176;BME280;52977;44.816;20.538;2024-02-04T09:36:07;100360.38;;;11.76;71.71
66176;BME280;52977;44.816;20.538;2024-02-04T09:38:33;100368.94;;;11.84;71.39
66176;BME280;52977;44.816;20.538;2024-02-04T09:41:00;100381.53;;;11.93;71.29
66176;BME280;52977;44.816;20.538;2024-02-04T09:43:26;100390.56;;;11.94;70.96
66176;BME280;52977;44.816;20.538;2024-02-04T09:45:52;100390.84;;;11.92;71.02
66176;BME280;52977;44.816;20.538;2024-02-04T09:48:19;100386.41;;;11.96;70.20
66176;BME280;52977;44.816;20.538;2024-02-04T09:50:47;100393.19;;;12.08;69.73
66176;BME280;52977;44.816;20.538;2024-02-04T09:53:15;100394.63;;;12.05;69.14
66176;BME280;52977;44.816;20.538;2024-02-04T09:55:44;100400.25;;;12.00;69.77
66176;BME280;52977;44.816;20.538;2024-02-04T09:58:11;100400.56;;;11.99;69.80
66176;BME280;52977;44.816;20.538;2024-02-04T10:00:38;100410.59;;;11.80;70.14
66176;BME280;52977;44.816;20.538;2024-02-04T10:03:05;100393.19;;;11.76;70.55
66176;BME280;52977;44.816;20.538;2024-02-04T10:05:32;100384.00;;;11.72;70.63
66176;BME280;52977;44.816;20.538;2024-02-04T10:07:58;100381.56;;;11.71;70.75
66176;BME280;52977;44.816;20.538;2024-02-04T10:10:24;100379.44;;;11.68;71.23
66176;BME280;52977;44.816;20.538;2024-02-04T10:12:51;100375.91;;;11.67;70.99
66176;BME280;52977;44.816;20.538;2024-02-04T10:15:17;100370.81;;;11.74;71.48
66176;BME280;52977;44.816;20.538;2024-02-04T10:17:47;100383.09;;;11.86;70.86
66176;BME280;52977;44.816;20.538;2024-02-04T10:20:13;100368.88;;;11.98;70.30
66176;BME280;52977;44.816;20.538;2024-02-04T10:22:40;100355.34;;;12.01;70.13
66176;BME280;52977;44.816;20.538;2024-02-04T10:25:07;100340.56;;;12.11;70.05
66176;BME280;52977;44.816;20.538;2024-02-04T10:27:35;100344.28;;;12.15;69.94
66176;BME280;52977;44.816;20.538;2024-02-04T10:30:01;100337.06;;;12.19;69.85
66176;BME280;52977;44.816;20.538;2024-02-04T10:32:27;100334.50;;;12.23;69.93
66176;BME280;52977;44.816;20.538;2024-02-04T10:34:54;100327.59;;;12.25;69.89
66176;BME280;52977;44.816;20.538;2024-02-04T10:37:20;100330.31;;;12.25;69.94
66176;BME280;52977;44.816;20.538;2024-02-04T10:39:46;100328.38;;;12.17;70.03
66176;BME280;52977;44.816;20.538;2024-02-04T10:42:15;100323.06;;;12.21;70.60
66176;BME280;52977;44.816;20.538;2024-02-04T10:44:44;100328.69;;;12.16;70.62
66176;BME280;52977;44.816;20.538;2024-02-04T10:47:17;100332.41;;;12.20;70.91
66176;BME280;52977;44.816;20.538;2024-02-04T10:49:50;100319.69;;;12.24;70.70
66176;BME280;52977;44.816;20.538;2024-02-04T10:52:38;100320.69;;;12.28;70.96
66176;BME280;52977;44.816;20.538;2024-02-04T10:55:09;100312.81;;;12.35;71.14
66176;BME280;52977;44.816;20.538;2024-02-04T10:57:37;100306.22;;;12.45;70.71
66176;BME280;52977;44.816;20.538;2024-02-04T11:00:04;100307.97;;;12.50;69.84
66176;BME280;52977;44.816;20.538;2024-02-04T11:02:34;100300.88;;;12.48;70.80
66176;BME280;52977;44.816;20.538;2024-02-04T11:05:03;100306.06;;;12.59;70.53
66176;BME280;52977;44.816;20.538;2024-02-04T11:07:33;100307.66;;;12.60;70.71
66176;BME280;52977;44.816;20.538;2024-02-04T11:10:03;100308.16;;;12.53;71.39
66176;BME280;52977;44.816;20.538;2024-02-04T11:12:33;100312.31;;;12.42;71.80
66176;BME280;52977;44.816;20.538;2024-02-04T11:15:04;100315.22;;;12.37;72.11
66176;BME280;52977;44.816;20.538;2024-02-04T11:20:41;100290.06;;;12.26;72.86
66176;BME280;52977;44.816;20.538;2024-02-04T11:23:35;100293.59;;;12.26;73.07
66176;BME280;52977;44.816;20.538;2024-02-04T11:26:04;100277.34;;;12.30;72.44
66176;BME280;52977;44.816;20.538;2024-02-04T11:28:31;100283.63;;;12.30;72.60
66176;BME280;52977;44.816;20.538;2024-02-04T11:30:58;100277.81;;;12.32;72.38
66176;BME280;52977;44.816;20.538;2024-02-04T11:33:27;100269.97;;;12.39;72.34
66176;BME280;52977;44.816;20.538;2024-02-04T11:36:03;100275.59;;;12.43;72.40
66176;BME280;52977;44.816;20.538;2024-02-04T11:38:31;100268.34;;;12.56;71.18
66176;BME280;52977;44.816;20.538;2024-02-04T11:40:57;100260.16;;;12.64;70.41
66176;BME280;52977;44.816;20.538;2024-02-04T11:43:24;100262.22;;;12.76;70.36
66176;BME280;52977;44.816;20.538;2024-02-04T11:45:52;100251.75;;;12.87;69.35
66176;BME280;52977;44.816;20.538;2024-02-04T11:48:37;100250.78;;;13.01;68.50
66176;BME280;52977;44.816;20.538;2024-02-04T11:51:05;100253.03;;;12.90;68.97
66176;BME280;52977;44.816;20.538;2024-02-04T11:53:31;100251.09;;;12.99;69.05
66176;BME280;52977;44.816;20.538;2024-02-04T11:56:00;100258.84;;;12.88;69.10
66176;BME280;52977;44.816;20.538;2024-02-04T11:58:29;100256.91;;;12.89;69.46
66176;BME280;52977;44.816;20.538;2024-02-04T12:00:57;100247.09;;;12.96;69.77
66176;BME280;52977;44.816;20.538;2024-02-04T12:03:31;100244.47;;;13.00;69.92
66176;BME280;52977;44.816;20.538;2024-02-04T12:05:58;100244.34;;;12.96;69.80
66176;BME280;52977;44.816;20.538;2024-02-04T12:08:27;100239.34;;;12.90;69.79
66176;BME280;52977;44.816;20.538;2024-02-04T12:10:54;100234.50;;;12.95;70.14
66176;BME280;52977;44.816;20.538;2024-02-04T12:13:20;100228.03;;;13.00;69.91
66176;BME280;52977;44.816;20.538;2024-02-04T12:15:50;100226.25;;;13.04;69.85
66176;BME280;52977;44.816;20.538;2024-02-04T12:18:16;100208.81;;;13.18;69.78
66176;BME280;52977;44.816;20.538;2024-02-04T12:20:47;100220.25;;;13.20;69.21
66176;BME280;52977;44.816;20.538;2024-02-04T12:23:32;100216.69;;;13.28;69.15
66176;BME280;52977;44.816;20.538;2024-02-04T12:26:00;100214.09;;;13.40;69.13
66176;BME280;52977;44.816;20.538;2024-02-04T12:28:26;100222.75;;;13.51;68.68
66176;BME280;52977;44.816;20.538;2024-02-04T12:30:55;100210.97;;;13.50;68.65
66176;BME280;52977;44.816;20.538;2024-02-04T12:33:22;100202.09;;;13.54;68.34
66176;BME280;52977;44.816;20.538;2024-02-04T12:35:51;100193.88;;;13.54;68.13
66176;BME280;52977;44.816;20.538;2024-02-04T12:38:18;100199.22;;;13.50;67.88
66176;BME280;52977;44.816;20.538;2024-02-04T12:40:44;100210.78;;;13.56;67.20
66176;BME280;52977;44.816;20.538;2024-02-04T12:43:11;100209.50;;;13.62;66.95
66176;BME280;52977;44.816;20.538;2024-02-04T12:45:37;100206.03;;;13.74;66.72